Time;durP1;ratioP1;P1;durP2;ratioP2;P2;SDS_P1;SDS_P2;PMS_P1;PMS_P2;Temp;Humidity;BMP_temperature;BMP_pressure;BME280_temperature;BME280_humidity;BME280_pressure;Samples;Min_cycle;Max_cycle;Signal;HPM_P1;HPM_P2
2022/11/10 01:26:21;;;;;;;15.40;2.70;;;11.50;99.90;;;;;;6312602;22;20815;-84
2022/11/10 01:29:57;;;;;;;;;;;;;;;;;;;;;
2022/11/10 01:32:59;;;;;;;8.17;1.97;;;11.30;99.90;;;;;;6170694;22;20485;-84
2022/11/10 01:46:29;;;;;;;;;;;;;;;;;;;;;
2022/11/10 01:49:37;;;;;;;;;;;;;;;;;;;;;
2022/11/10 03:19:32;;;;;;;18.90;2.40;;;10.50;99.90;;;;;;6274741;22;21045;-85
2022/11/10 03:26:29;;;;;;;10.43;2.30;;;10.50;99.90;;;;;;6205074;23;20806;-85
2022/11/10 03:33:24;;;;;;;;;;;;;;;;;;;;;
2022/11/10 03:40:02;;;;;;;;;;;;;;;;;;;;;
2022/11/10 03:43:28;;;;;;;;;;;;;;;;;;;;;
2022/11/10 03:46:55;;;;;;;;;;;;;;;;;;;;;
2022/11/10 03:56:43;;;;;;;;;;;;;;;;;;;;;
2022/11/10 04:03:24;;;;;;;;;;;;;;;;;;;;;
2022/11/10 04:16:15;;;;;;;11.10;2.80;;;10.40;99.90;;;;;;6271237;22;20390;-85
2022/11/10 04:25:14;;;;;;;12.50;2.33;;;10.50;99.90;;;;;;6273627;22;20442;-86
2022/11/10 04:28:23;;;;;;;;;;;;;;;;;;;;;
2022/11/10 04:31:30;;;;;;;11.97;2.90;;;10.50;99.90;;;;;;6282545;22;20548;-86
2022/11/10 04:38:05;;;;;;;8.63;2.73;;;10.40;99.90;;;;;;6209353;23;20385;-85
2022/11/10 04:48:00;;;;;;;12.17;2.37;;;10.30;99.90;;;;;;6127115;23;20395;-85
2022/11/10 05:01:34;;;;;;;7.37;2.27;;;10.20;1.00;;;;;;6304516;22;20445;-86
2022/11/10 05:16:37;;;;;;;8.90;2.50;;;10.20;1.00;;;;;;6304582;22;20433;-86
2022/11/10 05:26:49;;;;;;;5.03;2.17;;;10.10;1.00;;;;;;6305372;22;20420;-86
2022/11/10 05:33:42;;;;;;;8.90;2.43;;;10.10;1.00;;;;;;6284435;22;20396;-86
2022/11/10 05:36:38;;;;;;;;;;;;;;;;;;;;;
2022/11/10 05:43:55;;;;;;;;;;;;;;;;;;;;;
2022/11/10 05:46:19;;;;;;;13.23;3.50;;;10.10;1.00;;;;;;6287797;22;20457;-86
2022/11/10 05:49:37;;;;;;;9.30;3.00;;;10.10;1.00;;;;;;6249249;22;20394;-86
2022/11/10 05:59:55;;;;;;;13.57;3.10;;;10.00;1.00;;;;;;6190677;22;20466;-86
2022/11/10 06:09:52;;;;;;;;;;;;;;;;;;;;;
2022/11/10 06:18:41;;;;;;;16.57;2.70;;;10.00;1.00;;;;;;6320622;22;21035;-85
2022/11/10 06:21:09;;;;;;;14.43;3.60;;;10.00;1.00;;;;;;6313756;22;20421;-85
2022/11/10 06:23:47;;;;;;;;;;;;;;;;;;;;;
2022/11/10 06:42:50;;;;;;;7.00;2.40;;;10.20;1.00;;;;;;6294172;22;20371;-85
2022/11/10 06:45:27;;;;;;;13.20;3.23;;;10.20;1.00;;;;;;6326653;22;20410;-84
2022/11/10 06:48:19;;;;;;;12.23;3.03;;;10.20;1.00;;;;;;6298033;22;20424;-83
2022/11/10 06:50:44;;;;;;;9.30;1.97;;;10.20;1.00;;;;;;6303750;22;20402;-83
2022/11/10 06:53:12;;;;;;;17.93;3.27;;;10.30;1.00;;;;;;6307867;22;20382;-83
2022/11/10 06:55:38;;;;;;;14.97;3.27;;;10.30;1.00;;;;;;6308335;22;20154;-84
2022/11/10 06:58:07;;;;;;;11.70;2.33;;;10.30;1.00;;;;;;6308396;22;20406;-84
2022/11/10 07:00:33;;;;;;;13.67;5.10;;;10.40;1.00;;;;;;6280376;22;20493;-84
2022/11/10 07:03:06;;;;;;;11.77;2.80;;;10.50;99.90;;;;;;6308277;22;20431;-84
2022/11/10 07:05:41;;;;;;;11.70;2.57;;;10.60;99.90;;;;;;6308424;22;20172;-84
2022/11/10 07:08:15;;;;;;;12.93;2.73;;;10.70;99.90;;;;;;6307497;22;20361;-84
2022/11/10 07:10:56;;;;;;;13.57;3.10;;;10.80;99.90;;;;;;6307549;22;20382;-83
2022/11/10 07:13:24;;;;;;;13.27;2.97;;;10.90;99.90;;;;;;6307358;22;20398;-85
2022/11/10 07:15:57;;;;;;;8.53;2.60;;;11.10;99.90;;;;;;6280067;22;20433;-84
2022/11/10 07:18:25;;;;;;;8.70;2.50;;;11.40;99.90;;;;;;6308019;22;20365;-84
2022/11/10 07:21:01;;;;;;;16.50;3.23;;;11.70;99.90;;;;;;6306078;22;20429;-84
2022/11/10 07:23:39;;;;;;;;;;;;;;;;;;;;;
2022/11/10 07:26:05;;;;;;;7.73;2.53;;;12.50;1.00;;;;;;6307363;22;20479;-78
2022/11/10 07:28:30;;;;;;;7.40;2.47;;;13.80;1.00;;;;;;6308282;22;20377;-81
2022/11/10 07:30:58;;;;;;;16.20;3.07;;;15.10;1.00;;;;;;6307342;22;20178;-82
2022/11/10 07:33:27;;;;;;;9.33;3.03;;;16.10;99.90;;;;;;6309257;22;20143;-82
2022/11/10 07:35:58;;;;;;;13.03;2.90;;;17.10;99.90;;;;;;6281861;22;20382;-83
2022/11/10 07:38:26;;;;;;;9.70;3.37;;;18.00;1.00;;;;;;6310645;22;20386;-83
2022/11/10 07:40:52;;;;;;;8.03;2.23;;;18.70;1.00;;;;;;6281842;22;20394;-79
2022/11/10 07:43:26;;;;;;;12.90;2.40;;;19.50;1.00;;;;;;6310203;22;20390;-81
2022/11/10 07:46:01;;;;;;;8.13;2.77;;;20.20;99.90;;;;;;6282989;22;20916;-81
2022/11/10 07:48:37;;;;;;;6.90;2.50;;;20.80;99.90;;;;;;6309332;22;20364;-81
2022/11/10 07:51:09;;;;;;;7.07;2.77;;;21.50;99.90;;;;;;6310588;22;20350;-80
2022/11/10 07:53:40;;;;;;;14.87;2.70;;;22.10;99.90;;;;;;6310338;22;20356;-80
2022/11/10 07:56:25;;;;;;;7.73;3.97;;;22.60;99.90;;;;;;6283604;22;20368;-80
2022/11/10 07:58:55;;;;;;;8.13;2.73;;;23.00;99.90;;;;;;6282380;22;20387;-81
2022/11/10 08:01:21;;;;;;;10.37;2.70;;;22.80;99.90;;;;;;6281087;22;20480;-80
2022/11/10 08:03:50;;;;;;;10.83;2.63;;;22.00;99.90;;;;;;6309360;22;20377;-81
2022/11/10 08:06:18;;;;;;;11.60;2.50;;;21.70;99.90;;;;;;6310401;22;20623;-80
2022/11/10 08:08:46;;;;;;;8.90;3.17;;;22.20;99.90;;;;;;6310514;22;20376;-80
2022/11/10 08:11:14;;;;;;;12.10;3.47;;;22.90;99.90;;;;;;6283521;22;20444;-79
2022/11/10 08:13:44;;;;;;;8.73;3.20;;;23.70;99.90;;;;;;6282925;22;20386;-80
2022/11/10 08:16:10;;;;;;;10.47;2.70;;;24.30;99.90;;;;;;6310273;22;20421;-80
2022/11/10 08:18:36;;;;;;;11.07;2.77;;;24.80;99.90;;;;;;6282087;22;20532;-80
2022/11/10 08:21:06;;;;;;;7.63;2.70;;;25.30;99.90;;;;;;6308474;22;20148;-80
2022/11/10 08:23:40;;;;;;;11.17;3.10;;;25.70;99.90;;;;;;6307775;22;20207;-80
2022/11/10 08:26:08;;;;;;;5.13;2.47;;;26.10;99.90;;;;;;6280722;22;20420;-80
2022/11/10 08:28:49;;;;;;;;;;;;;;;;;;;;;
2022/11/10 08:31:17;;;;;;;9.30;2.73;;;27.20;99.90;;;;;;6309689;22;20915;-81
2022/11/10 08:33:43;;;;;;;5.90;2.43;;;27.50;99.90;;;;;;6282227;22;20409;-80
2022/11/10 08:36:20;;;;;;;7.10;2.27;;;27.80;99.90;;;;;;6308877;22;20421;-80
2022/11/10 08:38:51;;;;;;;10.67;3.67;;;28.00;99.90;;;;;;6280502;22;20707;-80
2022/11/10 08:41:30;;;;;;;7.17;2.40;;;28.20;99.90;;;;;;6278362;22;20374;-79
2022/11/10 08:44:26;;;;;;;;;;;;;;;;;;;;;
2022/11/10 08:46:57;;;;;;;7.70;2.57;;;28.70;99.90;;;;;;6308708;22;20478;-79
2022/11/10 08:49:30;;;;;;;13.73;3.07;;;28.80;99.90;;;;;;6308546;22;20367;-80
2022/11/10 08:52:09;;;;;;;;;;;;;;;;;;;;;
2022/11/10 08:54:45;;;;;;;;;;;;;;;;;;;;;
2022/11/10 08:57:24;;;;;;;8.60;2.30;;;28.10;99.90;;;;;;6307348;22;20489;-79
2022/11/10 08:59:58;;;;;;;9.20;2.27;;;28.50;99.90;;;;;;6308944;22;20385;-80
2022/11/10 09:02:33;;;;;;;9.00;2.40;;;28.70;99.90;;;;;;6279700;22;20382;-80
2022/11/10 09:05:24;;;;;;;8.30;2.70;;;28.90;99.90;;;;;;6308477;22;20378;-80
2022/11/10 09:07:55;;;;;;;11.43;2.50;;;29.20;99.90;;;;;;6308804;22;20390;-80
2022/11/10 09:10:25;;;;;;;9.93;2.47;;;29.40;99.90;;;;;;6309062;22;20400;-80
2022/11/10 09:12:51;;;;;;;9.17;2.43;;;29.40;99.90;;;;;;6280255;22;20370;-80
2022/11/10 09:15:19;;;;;;;10.07;2.73;;;29.50;99.90;;;;;;6308694;22;20905;-81
2022/11/10 09:17:45;;;;;;;7.97;2.13;;;29.60;99.90;;;;;;6306813;22;20163;-82
2022/11/10 09:20:13;;;;;;;16.07;3.50;;;29.60;99.90;;;;;;6306583;22;20424;-80
2022/11/10 09:22:48;;;;;;;9.67;2.70;;;29.60;99.90;;;;;;6308594;22;20200;-80
2022/11/10 09:25:56;;;;;;;7.63;3.00;;;29.40;99.90;;;;;;6284760;22;20386;-82
2022/11/10 09:33:18;;;;;;;;;;;;;;;;;;;;;
2022/11/10 09:54:41;;;;;;;;;;;;;;;;;;;;;
2022/11/10 10:30:06;;;;;;;;;;;;;;;;;;;;;
2022/11/10 10:32:47;;;;;;;10.60;2.70;;;18.30;99.90;;;;;;6230729;22;20466;-84
2022/11/10 10:54:03;;;;;;;;;;;;;;;;;;;;;
2022/11/10 10:56:52;;;;;;;;;;;;;;;;;;;;;
2022/11/10 11:00:09;;;;;;;8.00;2.47;;;23.80;99.90;;;;;;6307329;22;20935;-86
2022/11/10 11:03:36;;;;;;;;;;;;;;;;;;;;;
2022/11/10 11:10:29;;;;;;;;;;;;;;;;;;;;;
2022/11/10 11:13:53;;;;;;;5.20;1.63;;;28.00;99.90;;;;;;6244024;22;20454;-85
2022/11/10 11:17:12;;;;;;;;;;;;;;;;;;;;;
2022/11/10 11:24:11;;;;;;;;;;;;;;;;;;;;;
2022/11/10 11:27:37;;;;;;;;;;;;;;;;;;;;;
2022/11/10 11:30:54;;;;;;;;;;;;;;;;;;;;;
2022/11/10 11:41:26;;;;;;;;;;;;;;;;;;;;;
2022/11/10 11:44:20;;;;;;;;;;;;;;;;;;;;;
2022/11/10 11:47:44;;;;;;;;;;;;;;;;;;;;;
2022/11/10 11:50:56;;;;;;;7.40;1.93;;;28.80;99.90;;;;;;6298154;22;20573;-86
2022/11/10 11:53:55;;;;;;;8.57;2.20;;;28.80;99.90;;;;;;6304712;22;20398;-85
2022/11/10 11:56:25;;;;;;;4.23;1.60;;;28.80;99.90;;;;;;6306598;22;20454;-85
2022/11/10 12:02:30;;;;;;;;;;;;;;;;;;;;;
2022/11/10 12:08:57;;;;;;;7.60;1.70;;;28.50;99.90;;;;;;6295187;22;20409;-87
2022/11/10 12:11:37;;;;;;;4.47;2.43;;;28.20;99.90;;;;;;6215530;23;20771;-86
2022/11/10 12:14:30;;;;;;;8.10;4.20;;;28.10;99.90;;;;;;6277257;22;20381;-86
2022/11/10 12:17:41;;;;;;;10.70;5.47;;;28.10;99.90;;;;;;6276291;22;20467;-86
2022/11/10 12:20:26;;;;;;;10.53;3.43;;;28.10;99.90;;;;;;6264786;22;20466;-84
2022/11/10 12:23:18;;;;;;;10.67;4.33;;;28.30;99.90;;;;;;6276425;22;20377;-86
2022/11/10 12:25:59;;;;;;;6.20;1.90;;;28.30;99.90;;;;;;6277925;22;20410;-86
2022/11/10 12:28:33;;;;;;;6.93;1.93;;;28.50;99.90;;;;;;6278330;22;20374;-85
2022/11/10 12:31:40;;;;;;;;;;;;;;;;;;;;;
2022/11/10 12:34:33;;;;;;;8.27;1.87;;;28.40;99.90;;;;;;6303936;22;20779;-85
2022/11/10 12:37:11;;;;;;;5.23;1.97;;;28.20;99.90;;;;;;6276633;22;20949;-86
2022/11/10 12:43:56;;;;;;;11.47;2.00;;;27.80;99.90;;;;;;6279574;22;20703;-86
2022/11/10 12:47:03;;;;;;;7.57;1.70;;;27.60;99.90;;;;;;6272590;22;20440;-85
2022/11/10 12:49:49;;;;;;;;;;;;;;;;;;;;;
2022/11/10 12:55:14;;;;;;;5.63;1.40;;;27.50;99.90;;;;;;6294619;22;20432;-85
2022/11/10 12:57:44;;;;;;;7.10;2.27;;;27.40;99.90;;;;;;6305415;22;20484;-85
2022/11/10 13:00:47;;;;;;;7.17;1.50;;;27.40;99.90;;;;;;6306719;22;20373;-86
2022/11/10 13:03:37;;;;;;;6.63;1.67;;;27.40;99.90;;;;;;6277313;22;20389;-85
2022/11/10 13:06:32;;;;;;;;;;;;;;;;;;;;;
2022/11/10 13:09:20;;;;;;;6.93;2.00;;;27.00;99.90;;;;;;6305666;22;20445;-85
2022/11/10 13:12:22;;;;;;;8.77;1.70;;;26.80;99.90;;;;;;6279941;22;20457;-85
2022/11/10 13:15:16;;;;;;;5.43;1.73;;;26.80;99.90;;;;;;6305849;22;20358;-85
2022/11/10 13:17:48;;;;;;;7.67;1.53;;;26.70;99.90;;;;;;6277244;22;20406;-86
2022/11/10 13:20:47;;;;;;;6.70;2.10;;;26.60;99.90;;;;;;6279758;22;20410;-86
2022/11/10 13:23:20;;;;;;;6.47;1.40;;;26.40;99.90;;;;;;6255323;22;20394;-85
2022/11/10 13:26:06;;;;;;;6.30;1.57;;;26.30;99.90;;;;;;6278558;22;20455;-86
2022/11/10 13:34:39;;;;;;;5.13;1.63;;;25.40;99.90;;;;;;6303579;22;20436;-86
2022/11/10 13:37:36;;;;;;;5.80;2.00;;;25.10;99.90;;;;;;6303203;22;20535;-86
2022/11/10 13:40:34;;;;;;;8.60;1.70;;;24.80;99.90;;;;;;6304355;22;20800;-86
2022/11/10 13:43:02;;;;;;;7.33;1.47;;;24.60;99.90;;;;;;6302945;22;20362;-86
2022/11/10 13:45:44;;;;;;;6.60;1.70;;;24.60;99.90;;;;;;6275233;22;20425;-86
2022/11/10 13:48:10;;;;;;;10.27;2.60;;;24.50;99.90;;;;;;6274202;22;20463;-85
2022/11/10 13:51:06;;;;;;;3.77;2.03;;;24.50;99.90;;;;;;6275966;22;20389;-86
2022/11/10 14:00:32;;;;;;;5.23;1.57;;;24.40;99.90;;;;;;6266900;22;20469;-86
2022/11/10 14:03:36;;;;;;;7.00;1.67;;;24.30;99.90;;;;;;6274126;22;20378;-86
2022/11/10 14:06:08;;;;;;;8.70;2.03;;;24.10;99.90;;;;;;6274901;22;20504;-86
2022/11/10 14:15:18;;;;;;;5.60;2.10;;;23.70;99.90;;;;;;6274864;22;20438;-85
2022/11/10 14:18:32;;;;;;;;;;;;;;;;;;;;;
2022/11/10 14:25:03;;;;;;;11.80;1.80;;;22.50;99.90;;;;;;6245158;22;20392;-86
2022/11/10 14:27:36;;;;;;;5.17;1.80;;;22.10;99.90;;;;;;6278371;22;20440;-87
2022/11/10 14:33:36;;;;;;;;;;;;;;;;;;;;;
2022/11/10 14:43:17;;;;;;;;;;;;;;;;;;;;;
2022/11/10 14:46:00;;;;;;;;;;;;;;;;;;;;;
2022/11/10 14:49:16;;;;;;;;;;;;;;;;;;;;;
2022/11/10 14:55:04;;;;;;;6.47;2.03;;;19.30;99.90;;;;;;6293265;22;20385;-85
2022/11/10 14:58:21;;;;;;;7.03;1.70;;;19.20;99.90;;;;;;6305876;22;20407;-84
2022/11/10 15:00:53;;;;;;;;;;;;;;;;;;;;;
2022/11/10 15:03:32;;;;;;;5.33;1.70;;;18.80;99.90;;;;;;6305685;22;20484;-86
2022/11/10 15:06:03;;;;;;;11.00;2.37;;;18.70;99.90;;;;;;6276630;22;20427;-85
2022/11/10 15:11:40;;;;;;;8.10;2.43;;;18.40;99.90;;;;;;6293444;22;20409;-85
2022/11/10 15:14:35;;;;;;;8.43;1.90;;;18.30;99.90;;;;;;6305785;22;20368;-86
2022/11/10 15:17:20;;;;;;;5.50;1.77;;;18.10;99.90;;;;;;6278395;22;20718;-85
2022/11/10 15:20:05;;;;;;;;;;;;;;;;;;;;;
2022/11/10 15:23:17;;;;;;;8.33;1.97;;;17.80;99.90;;;;;;6304274;22;20452;-86
2022/11/10 15:36:30;;;;;;;;;;;;;;;;;;;;;
2022/11/10 15:57:22;;;;;;;4.30;1.57;;;16.50;99.90;;;;;;6241816;22;20903;-88
2022/11/10 16:07:31;;;;;;;;;;;;;;;;;;;;;
2022/11/10 16:10:39;;;;;;;;;;;;;;;;;;;;;
2022/11/10 16:20:14;;;;;;;7.00;3.03;;;15.90;99.90;;;;;;6258448;22;20375;-88
2022/11/10 18:16:59;;;;;;;;;;;;;;;;;;;;;
2022/11/10 18:30:39;;;;;;;7.30;4.47;;;13.20;1.00;;;;;;6257603;22;20383;-87
2022/11/10 18:40:20;;;;;;;10.13;3.73;;;13.00;1.00;;;;;;6258973;22;20379;-87
2022/11/10 18:43:25;;;;;;;9.40;4.70;;;12.90;1.00;;;;;;6274038;22;20387;-87
2022/11/10 18:45:58;;;;;;;12.10;4.70;;;12.90;1.00;;;;;;6259432;22;20433;-86
2022/11/10 18:52:30;;;;;;;;;;;;;;;;;;;;;
2022/11/10 22:48:54;;;;;;;7.67;2.30;;;10.10;1.00;;;;;;6273310;22;20450;-88
2022/11/10 22:55:04;;;;;;;5.27;2.40;;;10.00;1.00;;;;;;6258550;22;20383;-88
2022/11/10 23:08:33;;;;;;;;;;;;;;;;;;;;;
2022/11/10 23:11:42;;;;;;;11.97;2.70;;;10.00;1.00;;;;;;6274614;22;20434;-88
2022/11/10 23:14:30;;;;;;;3.27;2.60;;;10.00;1.00;;;;;;6271730;22;20407;-87
2022/11/10 23:24:14;;;;;;;;;;;;;;;;;;;;;
2022/11/10 23:27:39;;;;;;;;;;;;;;;;;;;;;
2022/11/10 23:30:10;;;;;;;4.17;2.50;;;9.90;1.00;;;;;;6270436;22;20525;-87
2022/11/10 23:32:36;;;;;;;5.03;3.10;;;9.90;1.00;;;;;;6274978;22;20359;-86
2022/11/10 23:35:05;;;;;;;12.03;6.70;;;9.90;1.00;;;;;;6247151;22;20501;-86
2022/11/10 23:41:16;;;;;;;;;;;;;;;;;;;;;
2022/11/10 23:43:44;;;;;;;7.20;3.50;;;9.90;1.00;;;;;;6273952;22;20454;-86
2022/11/10 23:46:11;;;;;;;3.17;2.37;;;9.90;1.00;;;;;;6246377;22;20883;-86
2022/11/10 23:48:44;;;;;;;3.83;2.43;;;9.80;1.00;;;;;;6259022;22;20759;-85
2022/11/10 23:51:12;;;;;;;5.23;2.60;;;9.80;1.00;;;;;;6274429;22;20413;-86
2022/11/10 23:53:38;;;;;;;9.30;3.87;;;9.80;18.80;;;;;;6271993;22;20391;-86
2022/11/10 23:56:15;;;;;;;3.60;2.20;;;9.80;97.90;;;;;;6272803;22;20741;-86
2022/11/10 23:59:10;;;;;;;4.80;1.90;;;9.80;99.90;;;;;;6272146;22;20226;-86
